createdAt,value
2018-06-20T00:01:01.126Z,16.00
2018-06-20T00:03:29.191Z,16.00
2018-06-20T00:05:57.257Z,15.90
2018-06-20T00:08:25.305Z,15.90
2018-06-20T00:10:53.354Z,15.80
2018-06-20T00:13:21.405Z,15.90
2018-06-20T00:15:49.481Z,15.90
2018-06-20T00:18:17.535Z,15.90
2018-06-20T00:20:45.578Z,15.90
2018-06-20T00:23:13.823Z,15.90
2018-06-20T00:25:41.870Z,15.80
2018-06-20T00:28:10.398Z,15.80
2018-06-20T00:33:06.786Z,15.70
2018-06-20T00:35:34.924Z,15.70
2018-06-20T00:38:03.031Z,15.70
2018-06-20T00:40:31.077Z,15.70
2018-06-20T00:42:59.111Z,17.00
2018-06-20T00:47:55.106Z,15.60
2018-06-20T00:50:23.152Z,15.60
2018-06-20T00:52:51.201Z,15.60
2018-06-20T00:58:51.589Z,15.60
2018-06-20T01:01:20.129Z,15.50
2018-06-20T01:03:48.178Z,15.50
2018-06-20T01:06:16.237Z,15.50
2018-06-20T01:08:44.305Z,15.50
2018-06-20T01:11:12.677Z,15.50
2018-06-20T01:13:40.750Z,15.50
2018-06-20T01:16:08.798Z,15.40
2018-06-20T01:18:36.857Z,15.40
2018-06-20T01:21:04.897Z,15.40
2018-06-20T01:23:32.946Z,15.40
2018-06-20T01:26:00.998Z,15.40
2018-06-20T01:28:29.065Z,15.40
2018-06-20T01:30:57.099Z,15.40
2018-06-20T01:33:25.144Z,15.40
2018-06-20T01:35:53.195Z,15.40
2018-06-20T01:38:21.253Z,15.40
2018-06-20T01:40:49.301Z,15.40
2018-06-20T01:43:17.344Z,15.40
2018-06-20T01:45:45.390Z,15.40
2018-06-20T01:48:13.441Z,15.30
2018-06-20T01:50:41.520Z,15.30
2018-06-20T01:53:09.566Z,15.30
2018-06-20T01:55:37.616Z,15.30
2018-06-20T01:58:05.750Z,15.30
2018-06-20T02:00:33.805Z,15.30
2018-06-20T02:03:01.870Z,15.30
2018-06-20T02:05:29.920Z,15.20
2018-06-20T02:07:57.957Z,15.30
2018-06-20T02:10:25.994Z,15.30
2018-06-20T02:12:54.694Z,15.30
2018-06-20T02:15:22.765Z,15.20
2018-06-20T02:17:50.821Z,15.00
2018-06-20T02:20:18.893Z,15.00
2018-06-20T02:22:46.969Z,15.00
2018-06-20T02:25:15.014Z,15.10
2018-06-20T02:30:10.935Z,15.00
2018-06-20T02:32:38.971Z,15.10
2018-06-20T02:35:07.486Z,15.20
2018-06-20T02:37:35.774Z,15.10
2018-06-20T02:40:03.905Z,15.10
2018-06-20T02:42:32.202Z,15.10
2018-06-20T02:47:33.681Z,15.20
2018-06-20T02:50:01.789Z,15.20
2018-06-20T02:52:29.829Z,15.10
2018-06-20T02:54:58.342Z,15.00
2018-06-20T02:57:26.389Z,15.00
2018-06-20T02:59:54.442Z,15.00
2018-06-20T03:02:22.518Z,15.00
2018-06-20T03:04:50.585Z,15.00
2018-06-20T03:07:18.765Z,15.00
2018-06-20T03:09:46.818Z,14.90
2018-06-20T03:12:14.859Z,14.90
2018-06-20T03:17:10.870Z,15.00
2018-06-20T03:19:38.913Z,15.00
2018-06-20T03:22:06.961Z,15.00
2018-06-20T03:24:35.018Z,14.90
2018-06-20T03:29:30.897Z,14.80
2018-06-20T03:31:58.975Z,14.80
2018-06-20T03:34:27.340Z,14.90
2018-06-20T03:36:55.607Z,15.00
2018-06-20T03:39:23.671Z,15.00
2018-06-20T03:41:51.818Z,14.90
2018-06-20T03:44:19.887Z,14.90
2018-06-20T03:46:47.926Z,15.00
2018-06-20T03:51:43.890Z,15.10
2018-06-20T03:54:11.954Z,15.10
2018-06-20T03:56:39.985Z,15.20
2018-06-20T03:59:08.057Z,15.20
2018-06-20T04:01:36.134Z,15.30
2018-06-20T04:04:04.133Z,15.30
2018-06-20T04:06:32.368Z,15.40
2018-06-20T04:09:00.410Z,15.40
2018-06-20T04:11:28.461Z,15.40
2018-06-20T04:13:56.528Z,15.40
2018-06-20T04:16:24.579Z,15.40
2018-06-20T04:18:52.617Z,15.50
2018-06-20T04:21:20.670Z,15.50
2018-06-20T04:23:48.754Z,15.50
2018-06-20T04:26:16.817Z,15.60
2018-06-20T04:28:45.024Z,15.70
2018-06-20T04:31:13.057Z,15.70
2018-06-20T04:33:41.122Z,15.70
2018-06-20T04:36:09.160Z,15.70
2018-06-20T04:38:37.230Z,15.80
2018-06-20T04:41:05.302Z,15.20
2018-06-20T04:43:33.357Z,15.90
2018-06-20T04:46:02.414Z,15.90
2018-06-20T04:48:30.492Z,16.00
2018-06-20T04:50:58.541Z,16.00
2018-06-20T04:53:26.601Z,16.20
2018-06-20T04:55:54.690Z,16.20
2018-06-20T04:58:22.746Z,16.30
2018-06-20T05:00:50.796Z,16.40
2018-06-20T05:03:18.840Z,16.50
2018-06-20T05:05:46.905Z,16.60
2018-06-20T05:08:14.936Z,16.60
2018-06-20T05:10:43.172Z,16.70
2018-06-20T05:13:17.550Z,16.80
2018-06-20T05:15:45.609Z,16.80
2018-06-20T05:18:13.730Z,17.00
2018-06-20T05:20:41.816Z,17.00
2018-06-20T05:23:09.858Z,17.10
2018-06-20T05:25:37.938Z,17.10
2018-06-20T05:28:05.986Z,17.20
2018-06-20T05:30:34.066Z,17.20
2018-06-20T05:33:02.098Z,17.40
2018-06-20T05:37:58.090Z,17.50
2018-06-20T05:40:26.209Z,17.60
2018-06-20T05:45:22.717Z,17.60
2018-06-20T05:47:50.796Z,17.60
2018-06-20T05:50:18.949Z,17.70
2018-06-20T05:52:47.006Z,17.70
2018-06-20T05:55:15.069Z,17.80
2018-06-20T05:57:43.257Z,17.90
2018-06-20T06:00:11.301Z,17.90
2018-06-20T06:02:39.337Z,18.00
2018-06-20T06:05:07.441Z,18.10
2018-06-20T06:07:35.498Z,18.10
2018-06-20T06:10:06.845Z,18.20
2018-06-20T06:12:34.886Z,18.20
2018-06-20T06:15:02.933Z,18.20
2018-06-20T06:19:58.837Z,18.40
2018-06-20T06:22:26.922Z,18.60
2018-06-20T06:24:54.967Z,18.60
2018-06-20T06:27:23.022Z,18.80
2018-06-20T06:29:51.294Z,18.90
2018-06-20T06:32:19.331Z,18.90
2018-06-20T06:34:47.377Z,18.90
2018-06-20T06:39:43.497Z,18.90
2018-06-20T06:42:11.537Z,18.90
2018-06-20T06:44:39.593Z,19.00
2018-06-20T06:47:07.634Z,19.00
2018-06-20T06:49:35.688Z,19.00
2018-06-20T06:52:03.722Z,18.90
2018-06-20T06:56:59.837Z,19.00
2018-06-20T07:01:55.815Z,19.20
2018-06-20T07:04:23.879Z,19.50
2018-06-20T07:06:51.934Z,19.30
2018-06-20T07:09:20.095Z,19.50
2018-06-20T07:11:48.089Z,19.60
2018-06-20T07:14:16.125Z,19.60
2018-06-20T07:16:44.305Z,19.60
2018-06-20T07:19:12.341Z,19.50
2018-06-20T07:24:08.470Z,19.60
2018-06-20T07:26:36.462Z,19.70
2018-06-20T07:29:04.597Z,19.80
2018-06-20T07:31:32.638Z,19.90
2018-06-20T07:34:00.690Z,20.00
2018-06-20T07:36:28.749Z,20.00
2018-06-20T07:38:56.791Z,20.20
2018-06-20T07:41:24.845Z,20.20
2018-06-20T07:43:52.924Z,20.30
2018-06-20T07:46:20.963Z,20.40
2018-06-20T07:48:49.011Z,20.40
2018-06-20T07:53:45.008Z,20.20
2018-06-20T07:56:13.081Z,20.20
2018-06-20T07:58:47.161Z,20.20
2018-06-20T08:01:32.343Z,20.30
2018-06-20T08:04:05.891Z,20.40
2018-06-20T08:06:39.439Z,20.50
2018-06-20T08:09:12.939Z,20.40
2018-06-20T08:11:46.521Z,20.40
2018-06-20T08:14:19.938Z,20.60
2018-06-20T08:16:52.234Z,20.50
2018-06-20T08:19:25.719Z,20.60
2018-06-20T08:21:53.820Z,20.60
2018-06-20T08:24:21.937Z,20.60
2018-06-20T08:26:49.993Z,20.60
2018-06-20T08:29:18.037Z,20.70
2018-06-20T08:31:46.124Z,20.70
2018-06-20T08:34:14.777Z,20.70
2018-06-20T08:36:42.869Z,20.70
2018-06-20T08:41:38.981Z,20.70
2018-06-20T08:44:07.047Z,20.70
2018-06-20T08:46:35.133Z,20.80
2018-06-20T08:49:03.179Z,21.00
2018-06-20T08:51:31.217Z,20.90
2018-06-20T08:53:59.419Z,20.90
2018-06-20T08:56:27.452Z,20.90
2018-06-20T08:58:55.482Z,20.90
2018-06-20T09:01:23.663Z,21.00
2018-06-20T09:03:55.988Z,21.10
2018-06-20T09:06:29.521Z,21.20
2018-06-20T09:09:03.061Z,21.20
2018-06-20T09:11:36.646Z,20.90
2018-06-20T09:14:06.841Z,21.40
2018-06-20T09:16:40.341Z,21.40
2018-06-20T09:19:13.781Z,21.40
2018-06-20T09:21:41.830Z,21.50
2018-06-20T09:24:09.893Z,21.50
2018-06-20T09:26:37.949Z,21.60
2018-06-20T09:29:06.062Z,21.40
2018-06-20T09:31:35.070Z,21.20
2018-06-20T09:34:03.277Z,21.20
2018-06-20T09:36:31.377Z,21.20
2018-06-20T09:38:59.849Z,21.20
2018-06-20T09:41:28.730Z,21.20
2018-06-20T09:43:56.782Z,21.00
2018-06-20T09:46:24.858Z,20.90
2018-06-20T09:48:52.913Z,20.80
2018-06-20T09:51:21.894Z,21.00
2018-06-20T09:56:17.879Z,21.60
2018-06-20T09:58:45.937Z,21.90
2018-06-20T10:01:19.410Z,21.80
2018-06-20T10:03:52.926Z,22.00
2018-06-20T10:06:26.532Z,22.00
2018-06-20T10:08:59.998Z,22.00
2018-06-20T10:11:33.509Z,22.10
2018-06-20T10:14:02.533Z,22.20
2018-06-20T10:16:31.214Z,22.00
2018-06-20T10:18:59.271Z,22.20
2018-06-20T10:21:27.400Z,22.30
2018-06-20T10:23:55.370Z,22.20
2018-06-20T10:26:24.069Z,22.20
2018-06-20T10:28:52.333Z,22.10
2018-06-20T10:31:20.437Z,22.20
2018-06-20T10:33:48.612Z,22.10
2018-06-20T10:36:16.679Z,22.10
2018-06-20T10:38:44.941Z,22.30
2018-06-20T10:41:13.001Z,22.30
2018-06-20T10:43:41.078Z,22.20
2018-06-20T10:46:14.666Z,22.20
2018-06-20T10:48:42.667Z,22.20
2018-06-20T10:51:10.734Z,22.40
2018-06-20T10:53:38.790Z,22.60
2018-06-20T10:56:06.863Z,22.90
2018-06-20T10:58:40.274Z,23.00
2018-06-20T11:01:13.758Z,23.20
2018-06-20T11:03:47.898Z,22.80
2018-06-20T11:08:54.662Z,23.00
2018-06-20T11:11:28.090Z,23.20
2018-06-20T11:13:56.160Z,23.20
2018-06-20T11:16:24.330Z,23.30
2018-06-20T11:18:54.357Z,23.30
2018-06-20T11:21:22.405Z,23.10
2018-06-20T11:23:50.505Z,23.10
2018-06-20T11:26:18.549Z,22.90
2018-06-20T11:28:46.616Z,23.00
2018-06-20T11:31:14.695Z,23.00
2018-06-20T11:33:42.721Z,23.00
2018-06-20T11:36:10.761Z,23.40
2018-06-20T11:38:38.841Z,23.50
2018-06-20T11:41:06.900Z,23.70
2018-06-20T11:43:35.289Z,23.80
2018-06-20T11:46:08.887Z,23.80
2018-06-20T11:48:36.960Z,23.70
2018-06-20T11:51:06.046Z,23.70
2018-06-20T11:53:34.159Z,23.60
2018-06-20T11:56:02.271Z,23.80
2018-06-20T11:58:35.596Z,23.70
2018-06-20T12:01:09.031Z,23.80
2018-06-20T12:03:42.541Z,23.70
2018-06-20T12:06:16.122Z,23.60
2018-06-20T12:08:49.634Z,23.70
2018-06-20T12:11:23.057Z,23.70
2018-06-20T12:13:56.545Z,23.80
2018-06-20T12:16:26.670Z,23.60
2018-06-20T12:19:00.138Z,23.70
2018-06-20T12:21:33.561Z,23.90
2018-06-20T12:24:07.147Z,23.90
2018-06-20T12:26:40.620Z,24.10
2018-06-20T12:29:14.045Z,23.90
2018-06-20T12:31:47.975Z,23.80
2018-06-20T12:34:21.334Z,23.60
2018-06-20T12:36:54.818Z,23.90
2018-06-20T12:39:22.217Z,24.20
2018-06-20T12:41:55.629Z,24.50
2018-06-20T12:44:30.039Z,24.50
2018-06-20T12:47:05.814Z,24.60
2018-06-20T12:49:36.071Z,24.40
2018-06-20T12:52:04.695Z,24.30
2018-06-20T12:54:33.183Z,24.50
2018-06-20T12:57:01.253Z,24.70
2018-06-20T12:59:29.309Z,24.70
2018-06-20T13:01:57.445Z,24.70
2018-06-20T13:04:25.521Z,24.60
2018-06-20T13:06:53.579Z,24.50
2018-06-20T13:09:21.689Z,24.50
2018-06-20T13:11:49.790Z,24.50
2018-06-20T13:14:17.864Z,24.40
2018-06-20T13:16:45.929Z,24.40
2018-06-20T13:19:13.981Z,24.30
2018-06-20T13:21:42.150Z,24.30
2018-06-20T13:24:10.298Z,24.50
2018-06-20T13:26:38.389Z,24.40
2018-06-20T13:29:06.475Z,24.50
2018-06-20T13:31:39.995Z,24.70
2018-06-20T13:34:13.434Z,24.70
2018-06-20T13:36:46.869Z,24.70
2018-06-20T13:39:20.327Z,24.70
2018-06-20T13:41:53.869Z,25.00
2018-06-20T13:44:23.078Z,25.00
2018-06-20T13:46:56.529Z,25.10
2018-06-20T13:49:24.773Z,25.30
2018-06-20T13:51:53.759Z,25.50
2018-06-20T13:54:21.967Z,25.50
2018-06-20T13:56:50.377Z,25.70
2018-06-20T13:59:18.503Z,25.90
2018-06-20T14:01:46.506Z,26.00
2018-06-20T14:04:14.704Z,26.00
2018-06-20T14:06:42.970Z,25.90
2018-06-20T14:09:11.863Z,26.20
2018-06-20T14:11:40.404Z,26.00
2018-06-20T14:14:08.486Z,26.50
2018-06-20T14:16:36.533Z,26.50
2018-06-20T14:19:04.722Z,26.20
2018-06-20T14:21:37.130Z,26.20
2018-06-20T14:24:06.534Z,25.80
2018-06-20T14:26:35.106Z,25.90
2018-06-20T14:29:03.353Z,26.40
2018-06-20T14:31:36.848Z,26.40
2018-06-20T14:34:10.459Z,26.70
2018-06-20T14:36:44.017Z,26.20
2018-06-20T14:46:46.915Z,26.20
2018-06-20T14:49:14.990Z,26.00
2018-06-20T14:51:43.143Z,26.30
2018-06-20T14:54:11.181Z,26.40
2018-06-20T14:56:39.266Z,25.90
2018-06-20T14:59:07.394Z,26.10
2018-06-20T15:01:35.474Z,26.30
2018-06-20T15:04:03.543Z,26.50
2018-06-20T15:06:31.581Z,26.80
2018-06-20T15:08:59.649Z,27.00
2018-06-20T15:11:27.699Z,26.70
2018-06-20T15:13:55.761Z,26.30
2018-06-20T15:16:29.156Z,26.10
2018-06-20T15:18:57.228Z,26.10
2018-06-20T15:21:25.327Z,26.50
2018-06-20T15:23:53.422Z,26.50
2018-06-20T15:26:26.833Z,26.80
2018-06-20T15:29:00.129Z,27.10
2018-06-20T15:31:33.678Z,26.90
2018-06-20T15:34:07.291Z,26.30
2018-06-20T15:36:40.706Z,26.40
2018-06-20T15:39:08.981Z,26.40
2018-06-20T15:41:37.059Z,26.60
2018-06-20T15:44:05.748Z,26.90
2018-06-20T15:46:33.824Z,27.60
2018-06-20T15:49:02.675Z,27.80
2018-06-20T15:51:30.734Z,27.50
2018-06-20T15:53:58.934Z,27.50
2018-06-20T15:56:27.027Z,27.50
2018-06-20T15:58:55.104Z,27.20
2018-06-20T16:01:23.208Z,27.40
2018-06-20T16:03:51.287Z,27.20
2018-06-20T16:06:19.379Z,27.10
2018-06-20T16:08:52.693Z,27.20
2018-06-20T16:11:20.745Z,27.10
2018-06-20T16:13:48.793Z,27.30
2018-06-20T16:16:16.853Z,27.40
2018-06-20T16:18:50.411Z,27.30
2018-06-20T16:23:26.487Z,27.80
2018-06-20T16:26:00.163Z,27.60
2018-06-20T16:28:33.753Z,26.60
2018-06-20T16:31:01.822Z,26.50
2018-06-20T16:33:29.890Z,26.50
2018-06-20T16:35:57.934Z,26.80
2018-06-20T16:38:25.984Z,27.50
2018-06-20T16:40:54.046Z,27.80
2018-06-20T16:43:22.341Z,28.10
2018-06-20T16:45:50.402Z,28.20
2018-06-20T16:50:46.309Z,28.40
2018-06-20T16:53:14.349Z,28.00
2018-06-20T16:55:42.405Z,27.70
2018-06-20T16:58:10.510Z,27.40
2018-06-20T17:00:38.546Z,27.30
2018-06-20T17:03:06.850Z,27.50
2018-06-20T17:05:34.930Z,27.20
2018-06-20T17:08:03.073Z,27.10
2018-06-20T17:10:31.142Z,27.40
2018-06-20T17:13:04.680Z,27.70
2018-06-20T17:15:38.085Z,27.80
2018-06-20T17:18:11.425Z,27.70
2018-06-20T17:20:44.881Z,28.30
2018-06-20T17:23:18.359Z,28.50
2018-06-20T17:25:46.393Z,28.60
2018-06-20T17:28:14.477Z,29.40
2018-06-20T17:30:42.548Z,29.60
2018-06-20T17:33:10.633Z,29.30
2018-06-20T17:35:38.687Z,29.10
2018-06-20T17:38:06.777Z,29.00
2018-06-20T17:40:34.969Z,28.20
2018-06-20T17:43:03.133Z,27.50
2018-06-20T17:47:59.058Z,26.20
2018-06-20T17:50:27.165Z,26.00
2018-06-20T17:52:55.218Z,25.90
2018-06-20T17:55:23.310Z,26.00
2018-06-20T17:57:51.520Z,25.90
2018-06-20T18:00:19.567Z,25.90
2018-06-20T18:02:47.642Z,25.80
2018-06-20T18:05:21.073Z,25.70
2018-06-20T18:07:54.493Z,25.50
2018-06-20T18:10:27.949Z,25.50
2018-06-20T18:13:00.263Z,25.80
2018-06-20T18:15:33.677Z,26.00
2018-06-20T18:18:01.749Z,25.90
2018-06-20T18:20:29.797Z,25.80
2018-06-20T18:22:57.865Z,25.60
2018-06-20T18:25:26.130Z,25.50
2018-06-20T18:27:54.245Z,25.30
2018-06-20T18:30:22.358Z,25.30
2018-06-20T18:32:50.409Z,25.30
2018-06-20T18:35:18.459Z,25.40
2018-06-20T18:37:46.507Z,25.50
2018-06-20T18:40:14.549Z,25.70
2018-06-20T18:42:42.636Z,25.60
2018-06-20T18:45:10.691Z,25.50
2018-06-20T18:47:44.272Z,25.40
2018-06-20T18:50:12.326Z,25.30
2018-06-20T18:52:40.370Z,25.20
2018-06-20T18:55:08.442Z,25.10
2018-06-20T18:57:41.809Z,25.10
2018-06-20T19:00:15.378Z,24.90
2018-06-20T19:02:48.942Z,24.60
2018-06-20T19:05:22.393Z,24.50
2018-06-20T19:07:55.938Z,24.10
2018-06-20T19:10:24.024Z,23.90
2018-06-20T19:12:52.165Z,23.70
2018-06-20T19:15:20.213Z,23.70
2018-06-20T19:17:48.281Z,23.50
2018-06-20T19:20:16.335Z,23.50
2018-06-20T19:22:44.554Z,23.30
2018-06-20T19:25:12.641Z,23.40
2018-06-20T19:30:08.702Z,23.20
2018-06-20T19:32:36.738Z,22.90
2018-06-20T19:35:04.825Z,22.80
2018-06-20T19:37:32.879Z,22.70
2018-06-20T19:40:00.962Z,22.60
2018-06-20T19:42:29.021Z,22.30
2018-06-20T19:44:57.140Z,22.10
2018-06-20T19:47:25.184Z,22.10
2018-06-20T19:49:53.283Z,22.00
2018-06-20T19:52:21.362Z,21.90
2018-06-20T19:54:49.428Z,21.90
2018-06-20T19:57:17.540Z,21.90
2018-06-20T19:59:45.586Z,22.00
2018-06-20T20:02:13.663Z,22.00
2018-06-20T20:04:42.609Z,21.80
2018-06-20T20:07:11.612Z,21.80
2018-06-20T20:09:39.673Z,21.30
2018-06-20T20:12:08.273Z,21.30
2018-06-20T20:14:36.382Z,21.20
2018-06-20T20:17:04.842Z,21.20
2018-06-20T20:19:32.846Z,21.00
2018-06-20T20:22:00.888Z,20.80
2018-06-20T20:24:29.311Z,20.80
2018-06-20T20:26:57.414Z,20.80
2018-06-20T20:29:25.720Z,20.60
2018-06-20T20:31:53.937Z,20.70
2018-06-20T20:34:22.621Z,20.60
2018-06-20T20:36:50.697Z,20.60
2018-06-20T20:39:18.741Z,20.40
2018-06-20T20:41:46.802Z,20.40
2018-06-20T20:44:15.118Z,20.40
2018-06-20T20:46:43.194Z,20.40
2018-06-20T20:49:11.246Z,20.40
2018-06-20T20:51:39.301Z,20.40
2018-06-20T20:54:07.353Z,20.40
2018-06-20T20:56:36.006Z,20.50
2018-06-20T20:59:04.081Z,20.50
2018-06-20T21:01:32.414Z,20.40
2018-06-20T21:04:01.222Z,20.30
2018-06-20T21:06:29.385Z,20.30
2018-06-20T21:08:57.439Z,20.30
2018-06-20T21:11:29.198Z,19.90
2018-06-20T21:13:57.253Z,19.90
2018-06-20T21:16:25.343Z,19.90
2018-06-20T21:18:53.414Z,19.80
2018-06-20T21:21:21.457Z,19.90
2018-06-20T21:23:49.769Z,19.90
2018-06-20T21:26:17.830Z,19.70
2018-06-20T21:28:46.262Z,19.70
2018-06-20T21:31:14.358Z,19.80
2018-06-20T21:33:42.407Z,19.80
2018-06-20T21:36:10.486Z,19.80
2018-06-20T21:38:38.549Z,19.70
2018-06-20T21:41:06.846Z,19.70
2018-06-20T21:43:34.894Z,19.80
2018-06-20T21:46:02.970Z,19.80
2018-06-20T21:48:31.064Z,19.70
2018-06-20T21:50:59.093Z,19.70
2018-06-20T21:53:27.150Z,19.80
2018-06-20T21:55:55.217Z,19.80
2018-06-20T21:58:23.302Z,19.90
2018-06-20T22:00:51.350Z,19.90
2018-06-20T22:03:19.426Z,19.80
2018-06-20T22:05:47.497Z,19.70
2018-06-20T22:10:43.451Z,19.70
2018-06-20T22:13:11.506Z,19.70
2018-06-20T22:15:39.541Z,19.70
2018-06-20T22:18:07.626Z,19.70
2018-06-20T22:20:35.676Z,19.70
2018-06-20T22:23:03.730Z,19.80
2018-06-20T22:25:32.247Z,19.80
2018-06-20T22:28:01.000Z,19.90
2018-06-20T22:30:29.209Z,19.90
2018-06-20T22:32:57.248Z,19.90
2018-06-20T22:35:25.297Z,19.90
2018-06-20T22:37:53.353Z,19.90
2018-06-20T22:40:21.466Z,19.70
2018-06-20T22:42:49.708Z,19.70
2018-06-20T22:45:17.754Z,19.70
2018-06-20T22:47:45.803Z,19.70
2018-06-20T22:50:13.854Z,19.70
2018-06-20T22:52:41.915Z,19.70
2018-06-20T22:55:09.973Z,19.70
2018-06-20T22:57:38.018Z,19.60
2018-06-20T23:00:06.466Z,19.60
2018-06-20T23:02:34.505Z,19.70
2018-06-20T23:05:03.178Z,19.60
2018-06-20T23:07:31.234Z,19.60
2018-06-20T23:09:59.312Z,19.50
2018-06-20T23:12:27.361Z,19.60
2018-06-20T23:14:55.432Z,19.60
2018-06-20T23:17:23.497Z,19.50
2018-06-20T23:19:51.546Z,19.40
2018-06-20T23:22:19.615Z,19.50
2018-06-20T23:24:47.849Z,19.40
2018-06-20T23:27:15.923Z,19.40
2018-06-20T23:29:43.967Z,19.50
2018-06-20T23:32:12.013Z,19.40
2018-06-20T23:34:40.062Z,19.50
2018-06-20T23:37:08.139Z,19.40
2018-06-20T23:39:36.185Z,19.40
2018-06-20T23:42:04.222Z,19.40
2018-06-20T23:44:32.310Z,19.40
2018-06-20T23:47:00.389Z,19.40
2018-06-20T23:49:28.479Z,19.40
2018-06-20T23:51:56.513Z,19.40
2018-06-20T23:54:24.573Z,19.40
2018-06-20T23:56:52.609Z,19.40
2018-06-20T23:59:20.743Z,19.50
